Time;durP1;ratioP1;P1;durP2;ratioP2;P2;SDS_P1;SDS_P2;PMS_P1;PMS_P2;Temp;Humidity;BMP_temperature;BMP_pressure;BME280_temperature;BME280_humidity;BME280_pressure;Samples;Min_cycle;Max_cycle;Signal;HPM_P1;HPM_P2
2023/03/18 00:01:14;;;;;;;;;;;;;;;;;;5072691;28;19931;-67
2023/03/18 00:03:40;;;;;;;;;;;;;;;;;;5072639;28;20321;-67
2023/03/18 00:06:06;;;;;;;;;;;;;;;;;;5054440;28;19936;-67
2023/03/18 00:08:32;;;;;;;;;;;;;;;;;;5054505;28;19927;-68
2023/03/18 00:10:59;;;;;;;;;;;;;;;;;;5071143;28;20384;-67
2023/03/18 00:13:26;;;;;;;;;;;;;;;;;;5072470;28;20309;-67
2023/03/18 00:15:52;;;;;;;;;;;;;;;;;;5072359;28;20407;-67
2023/03/18 00:18:18;;;;;;;;;;;;;;;;;;5072439;28;19924;-67
2023/03/18 00:20:44;;;;;;;;;;;;;;;;;;5037786;28;19920;-67
2023/03/18 00:23:10;;;;;;;;;;;;;;;;;;5072404;28;19931;-67
2023/03/18 00:25:36;;;;;;;;;;;;;;;;;;5072348;28;19993;-67
2023/03/18 00:28:02;;;;;;;;;;;;;;;;;;5070671;28;20373;-67
2023/03/18 00:30:27;;;;;;;;;;;;;;;;;;5072145;28;19924;-65
2023/03/18 00:32:53;;;;;;;;;;;;;;;;;;5072203;28;19924;-66
2023/03/18 00:35:20;;;;;;;;;;;;;;;;;;5053771;28;20409;-66
2023/03/18 00:37:47;;;;;;;;;;;;;;;;;;5072049;28;19943;-66
2023/03/18 00:40:19;;;;;;;;;;;;;;;;;;5053948;28;19970;-66
2023/03/18 00:42:56;;;;;;;;;;;;;;;;;;5072053;28;19948;-66
2023/03/18 00:45:22;;;;;;;;;;;;;;;;;;5070029;28;20337;-66
2023/03/18 00:47:49;;;;;;;;;;;;;;;;;;5072092;28;19950;-66
2023/03/18 00:50:14;;;;;;;;;;;;;;;;;;5053983;28;19924;-66
2023/03/18 00:52:40;;;;;;;;;;;;;;;;;;5071901;28;20324;-66
2023/03/18 00:55:07;;;;;;;;;;;;;;;;;;5053713;28;19925;-66
2023/03/18 00:57:33;;;;;;;;;;;;;;;;;;5071975;28;19924;-66
2023/03/18 00:59:59;;;;;;;;;;;;;;;;;;5071975;28;20062;-66
2023/03/18 01:02:24;;;;;;;;;;;;;;;;;;5052433;28;19921;-66
2023/03/18 01:04:51;;;;;;;;;;;;;;;;;;5053224;28;19920;-66
2023/03/18 01:07:16;;;;;;;;;;;;;;;;;;5070832;28;19936;-66
2023/03/18 01:09:43;;;;;;;;;;;;;;;;;;5053160;28;20282;-68
2023/03/18 01:12:09;;;;;;;;;;;;;;;;;;5052743;28;19921;-67
2023/03/18 01:14:35;;;;;;;;;;;;;;;;;;5070845;28;19932;-67
2023/03/18 01:17:01;;;;;;;;;;;;;;;;;;5052806;28;19920;-67
2023/03/18 01:19:27;;;;;;;;;;;;;;;;;;5069127;28;20461;-67
2023/03/18 01:21:53;;;;;;;;;;;;;;;;;;5052587;28;19924;-67
2023/03/18 01:24:19;;;;;;;;;;;;;;;;;;5070415;28;19921;-67
2023/03/18 01:26:45;;;;;;;;;;;;;;;;;;5070839;28;19928;-67
2023/03/18 01:29:11;;;;;;;;;;;;;;;;;;5070954;28;19928;-67
2023/03/18 01:31:37;;;;;;;;;;;;;;;;;;5052840;28;19978;-67
2023/03/18 01:34:03;;;;;;;;;;;;;;;;;;5051419;28;19925;-67
2023/03/18 01:36:29;;;;;;;;;;;;;;;;;;5068500;28;20324;-67
2023/03/18 01:38:56;;;;;;;;;;;;;;;;;;5071573;28;19929;-67
2023/03/18 01:41:23;;;;;;;;;;;;;;;;;;5053337;28;20321;-67
2023/03/18 01:43:48;;;;;;;;;;;;;;;;;;5071468;28;20360;-67
2023/03/18 01:46:14;;;;;;;;;;;;;;;;;;5071465;28;20007;-67
2023/03/18 01:48:40;;;;;;;;;;;;;;;;;;5053504;28;19920;-67
2023/03/18 01:51:07;;;;;;;;;;;;;;;;;;5052179;28;20624;-67
2023/03/18 01:53:34;;;;;;;;;;;;;;;;;;5071463;28;19924;-67
2023/03/18 01:56:00;;;;;;;;;;;;;;;;;;5071656;28;20054;-67
2023/03/18 01:58:26;;;;;;;;;;;;;;;;;;5057300;28;20315;-67
2023/03/18 02:00:52;;;;;;;;;;;;;;;;;;5074906;28;20361;-67
2023/03/18 02:03:18;;;;;;;;;;;;;;;;;;5074884;28;20020;-67
2023/03/18 02:05:44;;;;;;;;;;;;;;;;;;5055377;28;20300;-67
2023/03/18 02:08:10;;;;;;;;;;;;;;;;;;5075041;28;19920;-65
2023/03/18 02:10:36;;;;;;;;;;;;;;;;;;5056746;28;19920;-65
2023/03/18 02:13:02;;;;;;;;;;;;;;;;;;5056777;28;20255;-67
2023/03/18 02:15:27;;;;;;;;;;;;;;;;;;5074810;28;19929;-66
2023/03/18 02:17:53;;;;;;;;;;;;;;;;;;5073453;28;19966;-65
2023/03/18 02:20:19;;;;;;;;;;;;;;;;;;5071743;28;20014;-65
2023/03/18 02:22:45;;;;;;;;;;;;;;;;;;5056631;28;20382;-66
2023/03/18 02:25:11;;;;;;;;;;;;;;;;;;5074473;28;19925;-65
2023/03/18 02:27:37;;;;;;;;;;;;;;;;;;5074558;28;20005;-66
2023/03/18 02:30:03;;;;;;;;;;;;;;;;;;5074483;28;20546;-66
2023/03/18 02:32:29;;;;;;;;;;;;;;;;;;5074304;28;19921;-66
2023/03/18 02:34:55;;;;;;;;;;;;;;;;;;5072692;28;19928;-66
2023/03/18 02:37:21;;;;;;;;;;;;;;;;;;5056237;28;19921;-66
2023/03/18 02:39:47;;;;;;;;;;;;;;;;;;5074251;28;19928;-66
2023/03/18 02:42:13;;;;;;;;;;;;;;;;;;5039516;28;19974;-66
2023/03/18 02:44:39;;;;;;;;;;;;;;;;;;5074279;28;19956;-66
2023/03/18 02:47:05;;;;;;;;;;;;;;;;;;5074232;28;20333;-66
2023/03/18 02:49:31;;;;;;;;;;;;;;;;;;5074000;28;20421;-67
2023/03/18 02:51:57;;;;;;;;;;;;;;;;;;5072902;28;20011;-66
2023/03/18 02:54:23;;;;;;;;;;;;;;;;;;5056054;28;19928;-66
2023/03/18 02:56:50;;;;;;;;;;;;;;;;;;5074067;28;19920;-67
2023/03/18 02:59:16;;;;;;;;;;;;;;;;;;5073989;28;19932;-67
2023/03/18 03:01:41;;;;;;;;;;;;;;;;;;5039041;28;19920;-67
2023/03/18 03:04:07;;;;;;;;;;;;;;;;;;5055883;28;20396;-66
2023/03/18 03:06:33;;;;;;;;;;;;;;;;;;5073478;28;20011;-67
2023/03/18 03:08:59;;;;;;;;;;;;;;;;;;5072308;28;19925;-67
2023/03/18 03:11:25;;;;;;;;;;;;;;;;;;5073703;28;19921;-66
2023/03/18 03:13:52;;;;;;;;;;;;;;;;;;5073814;28;19966;-67
2023/03/18 03:16:18;;;;;;;;;;;;;;;;;;5073830;28;19943;-67
2023/03/18 03:18:44;;;;;;;;;;;;;;;;;;5073397;28;19928;-66
2023/03/18 03:21:10;;;;;;;;;;;;;;;;;;5055406;28;19921;-67
2023/03/18 03:23:36;;;;;;;;;;;;;;;;;;5072108;28;19931;-67
2023/03/18 03:26:02;;;;;;;;;;;;;;;;;;5071566;28;20397;-66
2023/03/18 03:28:27;;;;;;;;;;;;;;;;;;5073438;28;19924;-67
2023/03/18 03:30:54;;;;;;;;;;;;;;;;;;5072851;28;19921;-66
2023/03/18 03:33:20;;;;;;;;;;;;;;;;;;5072399;28;20565;-66
2023/03/18 03:35:46;;;;;;;;;;;;;;;;;;5073028;28;20355;-67
2023/03/18 03:38:12;;;;;;;;;;;;;;;;;;5072597;28;19978;-67
2023/03/18 03:40:38;;;;;;;;;;;;;;;;;;5052874;28;20019;-67
2023/03/18 03:43:04;;;;;;;;;;;;;;;;;;5072232;28;20006;-67
2023/03/18 03:45:30;;;;;;;;;;;;;;;;;;5037296;28;19924;-66
2023/03/18 03:47:56;;;;;;;;;;;;;;;;;;5072143;28;19927;-66
2023/03/18 03:50:22;;;;;;;;;;;;;;;;;;5054063;28;19924;-67
2023/03/18 03:52:48;;;;;;;;;;;;;;;;;;5072180;28;19966;-66
2023/03/18 03:55:13;;;;;;;;;;;;;;;;;;5053915;28;19966;-67
2023/03/18 03:57:39;;;;;;;;;;;;;;;;;;5070550;28;19920;-67
2023/03/18 04:00:06;;;;;;;;;;;;;;;;;;5072629;28;20362;-66
2023/03/18 04:02:32;;;;;;;;;;;;;;;;;;5054796;28;19920;-66
2023/03/18 04:04:57;;;;;;;;;;;;;;;;;;5072811;28;19924;-66
2023/03/18 04:07:24;;;;;;;;;;;;;;;;;;5037766;28;19928;-67
2023/03/18 04:09:50;;;;;;;;;;;;;;;;;;5054628;28;19925;-66
2023/03/18 04:12:18;;;;;;;;;;;;;;;;;;5072462;28;20582;-67
2023/03/18 04:14:45;;;;;;;;;;;;;;;;;;5040145;28;19924;-66
2023/03/18 04:17:11;;;;;;;;;;;;;;;;;;5034438;28;20011;-66
2023/03/18 04:19:38;;;;;;;;;;;;;;;;;;5051743;28;20011;-66
2023/03/18 04:22:04;;;;;;;;;;;;;;;;;;5034376;28;20390;-66
2023/03/18 04:24:30;;;;;;;;;;;;;;;;;;5034409;28;20054;-66
2023/03/18 04:26:56;;;;;;;;;;;;;;;;;;5035053;28;20306;-67
2023/03/18 04:29:22;;;;;;;;;;;;;;;;;;5052428;28;19921;-66
2023/03/18 04:31:48;;;;;;;;;;;;;;;;;;5052440;28;19929;-67
2023/03/18 04:34:14;;;;;;;;;;;;;;;;;;5069628;28;19924;-66
2023/03/18 04:36:39;;;;;;;;;;;;;;;;;;5072332;28;19921;-67
2023/03/18 04:39:05;;;;;;;;;;;;;;;;;;5072158;28;19928;-67
2023/03/18 04:41:31;;;;;;;;;;;;;;;;;;5072064;28;19924;-67
2023/03/18 04:43:57;;;;;;;;;;;;;;;;;;5071843;28;20416;-67
2023/03/18 04:46:23;;;;;;;;;;;;;;;;;;5072148;28;19957;-67
2023/03/18 04:48:49;;;;;;;;;;;;;;;;;;5053821;28;19920;-67
2023/03/18 04:51:15;;;;;;;;;;;;;;;;;;5070803;28;20296;-67
2023/03/18 04:53:41;;;;;;;;;;;;;;;;;;5053773;28;20011;-67
2023/03/18 04:56:07;;;;;;;;;;;;;;;;;;5071916;28;19920;-67
2023/03/18 04:58:33;;;;;;;;;;;;;;;;;;5072021;28;19931;-67
2023/03/18 05:00:59;;;;;;;;;;;;;;;;;;5072005;28;19920;-66
2023/03/18 05:03:25;;;;;;;;;;;;;;;;;;5071901;28;20378;-66
2023/03/18 05:05:51;;;;;;;;;;;;;;;;;;5071851;28;19924;-67
2023/03/18 05:08:17;;;;;;;;;;;;;;;;;;5070356;28;20355;-66
2023/03/18 05:10:43;;;;;;;;;;;;;;;;;;5071939;28;19938;-67
2023/03/18 05:13:09;;;;;;;;;;;;;;;;;;5071779;28;20007;-66
2023/03/18 05:15:35;;;;;;;;;;;;;;;;;;5071953;28;19928;-66
2023/03/18 05:18:03;;;;;;;;;;;;;;;;;;5071784;28;19925;-66
2023/03/18 05:20:29;;;;;;;;;;;;;;;;;;5071798;28;19925;-67
2023/03/18 05:22:55;;;;;;;;;;;;;;;;;;5053588;28;19921;-67
2023/03/18 05:25:21;;;;;;;;;;;;;;;;;;5052070;28;19920;-67
2023/03/18 05:27:48;;;;;;;;;;;;;;;;;;5071748;28;20027;-66
2023/03/18 05:30:14;;;;;;;;;;;;;;;;;;5072176;28;20401;-67
2023/03/18 05:32:40;;;;;;;;;;;;;;;;;;5075724;28;19925;-67
2023/03/18 05:35:06;;;;;;;;;;;;;;;;;;5057268;28;20379;-67
2023/03/18 05:37:32;;;;;;;;;;;;;;;;;;5075709;28;19926;-66
2023/03/18 05:39:58;;;;;;;;;;;;;;;;;;5074019;28;19924;-67
2023/03/18 05:42:24;;;;;;;;;;;;;;;;;;5057274;28;20400;-67
2023/03/18 05:44:49;;;;;;;;;;;;;;;;;;5040605;28;19924;-66
2023/03/18 05:47:15;;;;;;;;;;;;;;;;;;5075234;28;20397;-66
2023/03/18 05:49:41;;;;;;;;;;;;;;;;;;5074884;28;19971;-67
2023/03/18 05:52:07;;;;;;;;;;;;;;;;;;5057043;28;20747;-67
2023/03/18 05:54:33;;;;;;;;;;;;;;;;;;5056848;28;19931;-67
2023/03/18 05:56:59;;;;;;;;;;;;;;;;;;5056998;28;19920;-66
2023/03/18 05:59:25;;;;;;;;;;;;;;;;;;5073481;28;20274;-67
2023/03/18 06:01:52;;;;;;;;;;;;;;;;;;5074546;28;19965;-67
2023/03/18 06:04:18;;;;;;;;;;;;;;;;;;5074203;28;19928;-66
2023/03/18 06:06:44;;;;;;;;;;;;;;;;;;5074583;28;19996;-67
2023/03/18 06:09:10;;;;;;;;;;;;;;;;;;5074116;28;20550;-67
2023/03/18 06:11:37;;;;;;;;;;;;;;;;;;5074346;28;19920;-67
2023/03/18 06:14:03;;;;;;;;;;;;;;;;;;5056132;28;19943;-67
2023/03/18 06:16:29;;;;;;;;;;;;;;;;;;5054439;28;19924;-67
2023/03/18 06:18:55;;;;;;;;;;;;;;;;;;5073924;28;19927;-67
2023/03/18 06:21:21;;;;;;;;;;;;;;;;;;5073404;28;19920;-67
2023/03/18 06:23:47;;;;;;;;;;;;;;;;;;5073897;28;19931;-67
2023/03/18 06:26:14;;;;;;;;;;;;;;;;;;5073570;28;19963;-67
2023/03/18 06:28:39;;;;;;;;;;;;;;;;;;5055847;28;20029;-67
2023/03/18 06:31:05;;;;;;;;;;;;;;;;;;5073359;28;19932;-67
2023/03/18 06:33:31;;;;;;;;;;;;;;;;;;5072878;28;20004;-66
2023/03/18 06:35:59;;;;;;;;;;;;;;;;;;5074559;28;19968;-67
2023/03/18 06:38:24;;;;;;;;;;;;;;;;;;5056328;28;20368;-67
2023/03/18 06:40:50;;;;;;;;;;;;;;;;;;5074456;28;20007;-67
2023/03/18 06:43:17;;;;;;;;;;;;;;;;;;5073477;28;19928;-67
2023/03/18 06:45:43;;;;;;;;;;;;;;;;;;5056005;28;19936;-66
2023/03/18 06:48:10;;;;;;;;;;;;;;;;;;5074092;22;19912;-63
2023/03/18 06:50:38;;;;;;;;;;;;;;;;;;5011695;28;19979;-63
2023/03/18 06:53:04;;;;;;;;;;;;;;;;;;5012485;28;19925;-63
2023/03/18 06:55:30;;;;;;;;;;;;;;;;;;5014445;28;19976;-63
2023/03/18 06:57:56;;;;;;;;;;;;;;;;;;5012504;28;19921;-63
2023/03/18 07:00:23;;;;;;;;;;;;;;;;;;5010150;28;20008;-63
2023/03/18 07:02:49;;;;;;;;;;;;;;;;;;4994815;28;19976;-63
2023/03/18 07:05:16;;;;;;;;;;;;;;;;;;4995613;28;19922;-63
2023/03/18 07:07:41;;;;;;;;;;;;;;;;;;5014255;28;20313;-63
2023/03/18 07:10:07;;;;;;;;;;;;;;;;;;5012656;28;20055;-63
2023/03/18 07:12:33;;;;;;;;;;;;;;;;;;5014153;28;19921;-62
2023/03/18 07:14:59;;;;;;;;;;;;;;;;;;5013898;28;20319;-63
2023/03/18 07:17:25;;;;;;;;;;;;;;;;;;5000361;28;19933;-63
2023/03/18 07:19:51;;;;;;;;;;;;;;;;;;4994497;28;19921;-63
2023/03/18 07:22:17;;;;;;;;;;;;;;;;;;4993999;28;19921;-63
2023/03/18 07:24:44;;;;;;;;;;;;;;;;;;5013999;28;20393;-63
2023/03/18 07:27:12;;;;;;;;;;;;;;;;;;5013640;28;19922;-63
2023/03/18 07:29:38;;;;;;;;;;;;;;;;;;5013791;28;19926;-63
2023/03/18 07:32:03;;;;;;;;;;;;;;;;;;5004654;28;19992;-63
2023/03/18 07:34:30;;;;;;;;;;;;;;;;;;4993899;28;19930;-63
2023/03/18 07:36:56;;;;;;;;;;;;;;;;;;4993769;28;19928;-64
2023/03/18 07:39:22;;;;;;;;;;;;;;;;;;4993933;28;19929;-63
2023/03/18 07:41:48;;;;;;;;;;;;;;;;;;4993883;28;19926;-63
2023/03/18 07:44:14;;;;;;;;;;;;;;;;;;4993793;28;20303;-63
2023/03/18 07:46:40;;;;;;;;;;;;;;;;;;4993599;28;19925;-63
2023/03/18 07:49:06;;;;;;;;;;;;;;;;;;4992129;28;19936;-63
2023/03/18 07:51:32;;;;;;;;;;;;;;;;;;4993706;28;19925;-63
2023/03/18 07:53:58;;;;;;;;;;;;;;;;;;4993792;28;19922;-63
2023/03/18 07:56:23;;;;;;;;;;;;;;;;;;4994202;28;19929;-63
2023/03/18 07:58:49;;;;;;;;;;;;;;;;;;5013230;28;19933;-63
2023/03/18 08:01:17;;;;;;;;;;;;;;;;;;5011949;28;19929;-63
2023/03/18 08:03:43;;;;;;;;;;;;;;;;;;5011694;28;19922;-63
2023/03/18 08:06:10;;;;;;;;;;;;;;;;;;4992156;28;19977;-63
2023/03/18 08:08:36;;;;;;;;;;;;;;;;;;4976011;28;19952;-63
2023/03/18 08:11:01;;;;;;;;;;;;;;;;;;4991949;28;20421;-63
2023/03/18 08:13:27;;;;;;;;;;;;;;;;;;4993581;28;19969;-63
2023/03/18 08:15:54;;;;;;;;;;;;;;;;;;4993463;28;19928;-63
2023/03/18 08:18:20;;;;;;;;;;;;;;;;;;4993063;28;19933;-63
2023/03/18 08:20:47;;;;;;;;;;;;;;;;;;4992990;28;19922;-63
2023/03/18 08:23:13;;;;;;;;;;;;;;;;;;4991629;28;19922;-63
2023/03/18 08:25:39;;;;;;;;;;;;;;;;;;4993047;28;19980;-63
2023/03/18 08:28:06;;;;;;;;;;;;;;;;;;4993156;28;19961;-63
2023/03/18 08:30:32;;;;;;;;;;;;;;;;;;4991612;28;19921;-63
2023/03/18 08:32:58;;;;;;;;;;;;;;;;;;4991468;28;19984;-63
2023/03/18 08:35:24;;;;;;;;;;;;;;;;;;4976592;28;19976;-63
2023/03/18 08:37:50;;;;;;;;;;;;;;;;;;4972647;28;20387;-64
2023/03/18 08:40:16;;;;;;;;;;;;;;;;;;4973021;28;20013;-63
2023/03/18 08:42:42;;;;;;;;;;;;;;;;;;4988101;28;20307;-63
2023/03/18 08:45:08;;;;;;;;;;;;;;;;;;4972522;28;19950;-64
2023/03/18 08:47:34;;;;;;;;;;;;;;;;;;4972457;28;19926;-63
2023/03/18 08:50:00;;;;;;;;;;;;;;;;;;4972314;28;19933;-63
2023/03/18 08:52:26;;;;;;;;;;;;;;;;;;4976529;28;19955;-63
2023/03/18 08:54:52;;;;;;;;;;;;;;;;;;4991665;28;19924;-63
2023/03/18 08:57:18;;;;;;;;;;;;;;;;;;4991763;28;19926;-63
2023/03/18 08:59:44;;;;;;;;;;;;;;;;;;4991483;28;19925;-63
2023/03/18 09:02:10;;;;;;;;;;;;;;;;;;4990612;28;19922;-64
2023/03/18 09:04:37;;;;;;;;;;;;;;;;;;4992267;28;19922;-63
2023/03/18 09:07:03;;;;;;;;;;;;;;;;;;5009297;28;20330;-63
2023/03/18 09:09:29;;;;;;;;;;;;;;;;;;4992446;28;19933;-63
2023/03/18 09:11:55;;;;;;;;;;;;;;;;;;4992570;28;19926;-63
2023/03/18 09:14:22;;;;;;;;;;;;;;;;;;4992275;28;20362;-63
2023/03/18 09:16:48;;;;;;;;;;;;;;;;;;4992297;28;19953;-63
2023/03/18 09:19:14;;;;;;;;;;;;;;;;;;4992483;28;20587;-63
2023/03/18 09:21:40;;;;;;;;;;;;;;;;;;4992482;28;19921;-63
2023/03/18 09:24:08;;;;;;;;;;;;;;;;;;4973127;28;21276;-63
2023/03/18 09:26:33;;;;;;;;;;;;;;;;;;4992269;28;20404;-63
2023/03/18 09:29:00;;;;;;;;;;;;;;;;;;4992249;28;19926;-63
2023/03/18 09:31:25;;;;;;;;;;;;;;;;;;4992521;28;20021;-63
2023/03/18 09:33:51;;;;;;;;;;;;;;;;;;4992342;28;20024;-63
2023/03/18 09:36:18;;;;;;;;;;;;;;;;;;4992478;28;20005;-63
2023/03/18 09:38:44;;;;;;;;;;;;;;;;;;4990877;28;19925;-63
2023/03/18 09:41:09;;;;;;;;;;;;;;;;;;4989359;28;20004;-63
2023/03/18 09:43:36;;;;;;;;;;;;;;;;;;4992313;28;20252;-63
2023/03/18 09:46:01;;;;;;;;;;;;;;;;;;4990865;28;20358;-63
2023/03/18 09:48:27;;;;;;;;;;;;;;;;;;4991812;28;19930;-63
2023/03/18 09:50:53;;;;;;;;;;;;;;;;;;4992295;28;19969;-63
2023/03/18 09:53:19;;;;;;;;;;;;;;;;;;4990437;28;20571;-63
2023/03/18 09:55:45;;;;;;;;;;;;;;;;;;4955223;28;19949;-63
2023/03/18 09:58:11;;;;;;;;;;;;;;;;;;4972775;28;19926;-63
2023/03/18 10:00:37;;;;;;;;;;;;;;;;;;4972776;28;19944;-63
2023/03/18 10:03:03;;;;;;;;;;;;;;;;;;4972642;28;19922;-63
2023/03/18 10:05:29;;;;;;;;;;;;;;;;;;4972430;28;19965;-64
2023/03/18 10:07:55;;;;;;;;;;;;;;;;;;4972603;28;19934;-64
2023/03/18 10:10:22;;;;;;;;;;;;;;;;;;4972583;28;20038;-63
2023/03/18 10:12:48;;;;;;;;;;;;;;;;;;4990341;28;20253;-63
2023/03/18 10:15:13;;;;;;;;;;;;;;;;;;4991821;28;19953;-63
2023/03/18 10:17:40;;;;;;;;;;;;;;;;;;4993257;28;19976;-63
2023/03/18 10:20:05;;;;;;;;;;;;;;;;;;4995336;28;19972;-63
2023/03/18 10:22:31;;;;;;;;;;;;;;;;;;4995410;28;19930;-62
2023/03/18 10:24:57;;;;;;;;;;;;;;;;;;4992385;28;20021;-63
2023/03/18 10:27:23;;;;;;;;;;;;;;;;;;4993884;28;19926;-63
2023/03/18 10:29:49;;;;;;;;;;;;;;;;;;4995163;28;19948;-63
2023/03/18 10:32:15;;;;;;;;;;;;;;;;;;4995454;28;20366;-63
2023/03/18 10:34:41;;;;;;;;;;;;;;;;;;4993877;28;19928;-63
2023/03/18 10:37:07;;;;;;;;;;;;;;;;;;4995096;28;19921;-63
2023/03/18 10:39:33;;;;;;;;;;;;;;;;;;4993544;28;19922;-63
2023/03/18 10:42:00;;;;;;;;;;;;;;;;;;4993634;28;19930;-63
2023/03/18 10:44:25;;;;;;;;;;;;;;;;;;4993749;28;20244;-64
2023/03/18 10:46:52;;;;;;;;;;;;;;;;;;4993425;28;19981;-64
2023/03/18 10:49:18;;;;;;;;;;;;;;;;;;4993291;28;19936;-64
2023/03/18 10:51:44;;;;;;;;;;;;;;;;;;4993451;28;19922;-64
2023/03/18 10:54:10;;;;;;;;;;;;;;;;;;4993246;28;19922;-64
2023/03/18 10:56:35;;;;;;;;;;;;;;;;;;4994906;28;19932;-64
2023/03/18 10:59:01;;;;;;;;;;;;;;;;;;4994398;28;19983;-64
2023/03/18 11:01:27;;;;;;;;;;;;;;;;;;4994641;28;19973;-64
2023/03/18 11:03:53;;;;;;;;;;;;;;;;;;4994392;28;19925;-64
2023/03/18 11:06:19;;;;;;;;;;;;;;;;;;4994248;28;20488;-64
2023/03/18 11:08:46;;;;;;;;;;;;;;;;;;4994415;28;19941;-64
2023/03/18 11:11:11;;;;;;;;;;;;;;;;;;4991437;28;19921;-64
2023/03/18 11:13:37;;;;;;;;;;;;;;;;;;4994503;28;20399;-64
2023/03/18 11:16:03;;;;;;;;;;;;;;;;;;4994415;28;19932;-64
2023/03/18 11:18:31;;;;;;;;;;;;;;;;;;4992931;28;20571;-64
2023/03/18 11:20:59;;;;;;;;;;;;;;;;;;4992896;28;20016;-64
2023/03/18 11:23:34;;;;;;;;;;;;;;;;;;5012555;28;19933;-64
2023/03/18 11:26:00;;;;;;;;;;;;;;;;;;5013415;28;20559;-64
2023/03/18 11:28:26;;;;;;;;;;;;;;;;;;4993896;28;20015;-64
2023/03/18 11:30:52;;;;;;;;;;;;;;;;;;4992288;28;19957;-63
2023/03/18 11:33:18;;;;;;;;;;;;;;;;;;4994230;28;19941;-63
2023/03/18 11:35:44;;;;;;;;;;;;;;;;;;4993994;28;19929;-63
2023/03/18 11:38:10;;;;;;;;;;;;;;;;;;4993898;28;19921;-63
2023/03/18 11:40:36;;;;;;;;;;;;;;;;;;4992393;28;20293;-63
2023/03/18 11:43:03;;;;;;;;;;;;;;;;;;4993808;28;19928;-63
2023/03/18 11:45:30;;;;;;;;;;;;;;;;;;4990878;28;19925;-63
2023/03/18 11:47:57;;;;;;;;;;;;;;;;;;4993933;28;19929;-63
2023/03/18 11:50:24;;;;;;;;;;;;;;;;;;4992152;28;20000;-63
2023/03/18 11:52:51;;;;;;;;;;;;;;;;;;4993565;28;19928;-63
2023/03/18 11:55:17;;;;;;;;;;;;;;;;;;4993654;28;19925;-63
2023/03/18 11:57:44;;;;;;;;;;;;;;;;;;4993569;28;19926;-63
2023/03/18 12:00:09;;;;;;;;;;;;;;;;;;4993606;28;20261;-63
2023/03/18 12:02:35;;;;;;;;;;;;;;;;;;4992367;28;19936;-63
2023/03/18 12:05:01;;;;;;;;;;;;;;;;;;4991830;28;19929;-63
2023/03/18 12:07:29;;;;;;;;;;;;;;;;;;4993258;28;19926;-64
2023/03/18 12:09:55;;;;;;;;;;;;;;;;;;4993397;28;19922;-64
2023/03/18 12:12:21;;;;;;;;;;;;;;;;;;4991424;28;20080;-63
2023/03/18 12:14:48;;;;;;;;;;;;;;;;;;4989620;28;20008;-62
2023/03/18 12:17:14;;;;;;;;;;;;;;;;;;4991270;28;19922;-62
2023/03/18 12:19:40;;;;;;;;;;;;;;;;;;4992808;28;19948;-62
2023/03/18 12:22:06;;;;;;;;;;;;;;;;;;4990411;28;19925;-62
2023/03/18 12:24:32;;;;;;;;;;;;;;;;;;4984927;28;20009;-62
2023/03/18 12:26:58;;;;;;;;;;;;;;;;;;4987945;28;19969;-62
2023/03/18 12:29:24;;;;;;;;;;;;;;;;;;4986432;28;19921;-62
2023/03/18 12:31:50;;;;;;;;;;;;;;;;;;4978496;28;20005;-63
2023/03/18 12:34:16;;;;;;;;;;;;;;;;;;4988042;28;20020;-62
2023/03/18 12:36:43;;;;;;;;;;;;;;;;;;4987192;28;20363;-62
2023/03/18 12:39:09;;;;;;;;;;;;;;;;;;4991996;28;19941;-63
2023/03/18 12:41:35;;;;;;;;;;;;;;;;;;4989697;28;19922;-62
2023/03/18 12:44:00;;;;;;;;;;;;;;;;;;4992803;28;19926;-62
2023/03/18 12:46:27;;;;;;;;;;;;;;;;;;4991513;28;19930;-62
2023/03/18 12:48:53;;;;;;;;;;;;;;;;;;4992529;28;20368;-63
2023/03/18 12:51:19;;;;;;;;;;;;;;;;;;4992695;28;19988;-63
2023/03/18 12:53:45;;;;;;;;;;;;;;;;;;4992892;28;19926;-62
2023/03/18 12:56:11;;;;;;;;;;;;;;;;;;4991094;28;20261;-62
2023/03/18 12:58:37;;;;;;;;;;;;;;;;;;4992701;28;19928;-62
2023/03/18 13:01:07;;;;;;;;;;;;;;;;;;4991093;28;20343;-62
2023/03/18 13:03:33;;;;;;;;;;;;;;;;;;4985676;28;19922;-62
2023/03/18 13:05:59;;;;;;;;;;;;;;;;;;4986165;28;20511;-62
2023/03/18 13:08:24;;;;;;;;;;;;;;;;;;4984828;28;20021;-63
2023/03/18 13:10:51;;;;;;;;;;;;;;;;;;4991500;28;20331;-63
2023/03/18 13:13:16;;;;;;;;;;;;;;;;;;4992385;28;20368;-63
2023/03/18 13:15:42;;;;;;;;;;;;;;;;;;4990836;28;19972;-62
2023/03/18 13:18:09;;;;;;;;;;;;;;;;;;4982561;28;19969;-62
2023/03/18 13:20:36;;;;;;;;;;;;;;;;;;4971641;28;19930;-62
2023/03/18 13:23:02;;;;;;;;;;;;;;;;;;4984043;28;20563;-62
2023/03/18 13:25:28;;;;;;;;;;;;;;;;;;4986853;28;19922;-61
2023/03/18 13:27:54;;;;;;;;;;;;;;;;;;4987829;28;19950;-61
2023/03/18 13:30:20;;;;;;;;;;;;;;;;;;4988626;28;20002;-62
2023/03/18 13:32:46;;;;;;;;;;;;;;;;;;5003389;28;20372;-61
2023/03/18 13:35:13;;;;;;;;;;;;;;;;;;4990186;28;19921;-62
2023/03/18 13:37:39;;;;;;;;;;;;;;;;;;4984654;28;19922;-63
2023/03/18 13:40:05;;;;;;;;;;;;;;;;;;5012163;28;20012;-62
2023/03/18 13:42:30;;;;;;;;;;;;;;;;;;4990234;28;20024;-62
2023/03/18 13:44:57;;;;;;;;;;;;;;;;;;4978974;28;19926;-62
2023/03/18 13:47:23;;;;;;;;;;;;;;;;;;4977467;28;19981;-63
2023/03/18 13:49:49;;;;;;;;;;;;;;;;;;4976972;28;19984;-63
2023/03/18 13:52:15;;;;;;;;;;;;;;;;;;4992075;28;19954;-62
2023/03/18 13:54:41;;;;;;;;;;;;;;;;;;4995313;28;20464;-62
2023/03/18 13:57:08;;;;;;;;;;;;;;;;;;4992816;28;19921;-62
2023/03/18 13:59:34;;;;;;;;;;;;;;;;;;4989786;28;19926;-62
2023/03/18 14:02:00;;;;;;;;;;;;;;;;;;4993703;28;19932;-63
2023/03/18 14:04:29;;;;;;;;;;;;;;;;;;5025945;23;19929;-63
2023/03/18 14:06:55;;;;;;;;;;;;;;;;;;5034691;28;19964;-63
2023/03/18 14:09:21;;;;;;;;;;;;;;;;;;5035703;28;19925;-63
2023/03/18 14:11:48;;;;;;;;;;;;;;;;;;5034026;28;20267;-63
2023/03/18 14:14:14;;;;;;;;;;;;;;;;;;5030900;28;20000;-63
2023/03/18 14:16:41;;;;;;;;;;;;;;;;;;5032645;28;20016;-63
2023/03/18 14:19:06;;;;;;;;;;;;;;;;;;5033375;28;20393;-63
2023/03/18 14:21:32;;;;;;;;;;;;;;;;;;5031356;28;20008;-63
2023/03/18 14:23:58;;;;;;;;;;;;;;;;;;5032540;28;19928;-63
2023/03/18 14:26:25;;;;;;;;;;;;;;;;;;5033871;28;19933;-63
2023/03/18 14:28:52;;;;;;;;;;;;;;;;;;5034806;28;20007;-63
2023/03/18 14:31:18;;;;;;;;;;;;;;;;;;5031911;28;19921;-63
2023/03/18 14:33:44;;;;;;;;;;;;;;;;;;5033554;28;19925;-63
2023/03/18 14:36:10;;;;;;;;;;;;;;;;;;5032961;28;19944;-63
2023/03/18 14:38:36;;;;;;;;;;;;;;;;;;5034176;28;19974;-63
2023/03/18 14:41:02;;;;;;;;;;;;;;;;;;5032716;28;20379;-63
2023/03/18 14:43:28;;;;;;;;;;;;;;;;;;5030747;28;19925;-63
2023/03/18 14:45:54;;;;;;;;;;;;;;;;;;5032002;28;19925;-63
2023/03/18 14:48:21;;;;;;;;;;;;;;;;;;5032972;28;19948;-63
2023/03/18 14:50:47;;;;;;;;;;;;;;;;;;5030761;28;19932;-63
2023/03/18 14:53:14;;;;;;;;;;;;;;;;;;5033599;28;19921;-63
2023/03/18 14:55:40;;;;;;;;;;;;;;;;;;5034111;28;19925;-63
2023/03/18 14:58:06;;;;;;;;;;;;;;;;;;5031824;28;19924;-62
2023/03/18 15:00:32;;;;;;;;;;;;;;;;;;5014640;28;20009;-62
2023/03/18 15:02:58;;;;;;;;;;;;;;;;;;5031279;28;20012;-62
2023/03/18 15:05:24;;;;;;;;;;;;;;;;;;5030857;28;19925;-62
2023/03/18 15:07:51;;;;;;;;;;;;;;;;;;5040454;28;19935;-62
2023/03/18 15:10:18;;;;;;;;;;;;;;;;;;5031034;28;19921;-62
2023/03/18 15:12:44;;;;;;;;;;;;;;;;;;5031525;28;19937;-62
2023/03/18 15:15:10;;;;;;;;;;;;;;;;;;5032803;28;20004;-63
2023/03/18 15:17:37;;;;;;;;;;;;;;;;;;5032131;28;20388;-63
2023/03/18 15:20:04;;;;;;;;;;;;;;;;;;5032761;28;19924;-63
2023/03/18 15:22:30;;;;;;;;;;;;;;;;;;5030130;28;20031;-63
2023/03/18 15:24:56;;;;;;;;;;;;;;;;;;5033398;28;19940;-63
2023/03/18 15:27:22;;;;;;;;;;;;;;;;;;5033591;28;20274;-63
2023/03/18 15:29:48;;;;;;;;;;;;;;;;;;5032622;28;19929;-63
2023/03/18 15:32:14;;;;;;;;;;;;;;;;;;5031061;28;20016;-63
2023/03/18 15:34:41;;;;;;;;;;;;;;;;;;5032884;28;19929;-63
2023/03/18 15:37:07;;;;;;;;;;;;;;;;;;5032802;28;19929;-63
2023/03/18 15:39:33;;;;;;;;;;;;;;;;;;5031338;28;20812;-63
2023/03/18 15:41:59;;;;;;;;;;;;;;;;;;5018605;28;19983;-62
2023/03/18 15:44:25;;;;;;;;;;;;;;;;;;5031641;28;19956;-62
2023/03/18 15:46:53;;;;;;;;;;;;;;;;;;5017490;28;19972;-62
2023/03/18 15:49:19;;;;;;;;;;;;;;;;;;5013592;28;20347;-62
2023/03/18 15:51:46;;;;;;;;;;;;;;;;;;5013332;28;19936;-62
2023/03/18 15:54:13;;;;;;;;;;;;;;;;;;5030048;28;20065;-62
2023/03/18 15:56:39;;;;;;;;;;;;;;;;;;5028876;28;19921;-62
2023/03/18 15:59:05;;;;;;;;;;;;;;;;;;5028577;28;19953;-62
2023/03/18 16:01:31;;;;;;;;;;;;;;;;;;5032081;28;19929;-63
2023/03/18 16:03:57;;;;;;;;;;;;;;;;;;5040863;28;20024;-62
2023/03/18 16:06:25;;;;;;;;;;;;;;;;;;5052201;28;19972;-62
2023/03/18 16:08:51;;;;;;;;;;;;;;;;;;5052919;28;20278;-62
2023/03/18 16:11:17;;;;;;;;;;;;;;;;;;5052842;28;19920;-62
2023/03/18 16:13:44;;;;;;;;;;;;;;;;;;5053058;28;19924;-62
2023/03/18 16:16:10;;;;;;;;;;;;;;;;;;5049908;28;20382;-62
2023/03/18 16:18:36;;;;;;;;;;;;;;;;;;5049994;28;19921;-62
2023/03/18 16:21:01;;;;;;;;;;;;;;;;;;5052432;28;19936;-62
2023/03/18 16:23:28;;;;;;;;;;;;;;;;;;5047972;28;20271;-62
2023/03/18 16:25:55;;;;;;;;;;;;;;;;;;5049963;28;19929;-62
2023/03/18 16:28:21;;;;;;;;;;;;;;;;;;5050042;28;19925;-61
2023/03/18 16:30:46;;;;;;;;;;;;;;;;;;5051707;28;19924;-62
2023/03/18 16:33:12;;;;;;;;;;;;;;;;;;5050415;28;20294;-62
2023/03/18 16:35:38;;;;;;;;;;;;;;;;;;5038216;28;19998;-62
2023/03/18 16:38:05;;;;;;;;;;;;;;;;;;5032644;28;19951;-62